Time;durP1;ratioP1;P1;durP2;ratioP2;P2;SDS_P1;SDS_P2;PMS_P1;PMS_P2;Temp;Humidity;BMP_temperature;BMP_pressure;BME280_temperature;BME280_humidity;BME280_pressure;Samples;Min_cycle;Max_cycle;Signal;HPM_P1;HPM_P2
2024/02/12 00:00:58;;;;;;;337.03;85.00;;;;;8.50;95129.00;;;;5106034;27;20429;-63
2024/02/12 00:03:47;;;;;;;338.40;85.47;;;;;8.30;95133.00;;;;5105298;28;20416;-63
2024/02/12 00:06:36;;;;;;;344.87;90.50;;;;;8.40;95132.00;;;;5107494;28;20464;-62
2024/02/12 00:09:25;;;;;;;346.07;89.10;;;;;8.60;95135.00;;;;5105903;28;20446;-63
2024/02/12 00:12:16;;;;;;;336.90;85.03;;;;;8.40;95134.00;;;;5105622;28;20428;-63
2024/02/12 00:15:08;;;;;;;339.57;86.93;;;;;8.60;95139.00;;;;5109214;27;20717;-63
2024/02/12 00:17:58;;;;;;;336.77;85.47;;;;;8.70;95137.00;;;;5105905;27;20439;-62
2024/02/12 00:20:48;;;;;;;333.83;82.77;;;;;8.50;95137.00;;;;5109219;27;20425;-62
2024/02/12 00:23:37;;;;;;;349.97;93.27;;;;;8.60;95137.00;;;;5109987;28;20475;-63
2024/02/12 00:26:26;;;;;;;341.33;86.63;;;;;8.70;95136.00;;;;5108500;27;20454;-62
2024/02/12 00:29:15;;;;;;;339.00;86.13;;;;;8.70;95141.00;;;;5107674;27;20194;-63
2024/02/12 00:32:09;;;;;;;335.63;83.27;;;;;8.60;95145.00;;;;5110259;27;20421;-63
2024/02/12 00:34:59;;;;;;;333.23;80.93;;;;;8.60;95135.00;;;;5109237;27;20440;-62
2024/02/12 00:37:49;;;;;;;337.70;83.13;;;;;8.60;95138.00;;;;5107200;28;20413;-63
2024/02/12 00:40:40;;;;;;;340.37;87.60;;;;;8.40;95142.00;;;;5107684;28;20432;-63
2024/02/12 00:43:29;;;;;;;353.07;95.40;;;;;8.50;95141.00;;;;5108477;27;20950;-62
2024/02/12 00:46:18;;;;;;;338.73;85.30;;;;;8.60;95143.00;;;;5104582;28;20421;-63
2024/02/12 00:49:09;;;;;;;338.97;85.60;;;;;8.60;95145.00;;;;5109863;27;20947;-62
2024/02/12 00:51:58;;;;;;;337.50;83.97;;;;;8.60;95149.00;;;;5107506;27;20432;-62
2024/02/12 00:54:47;;;;;;;334.67;83.27;;;;;8.40;95151.00;;;;5107586;28;20451;-63
2024/02/12 00:57:36;;;;;;;343.67;88.50;;;;;8.50;95148.00;;;;5110508;27;20805;-65
2024/02/12 01:00:25;;;;;;;339.63;85.93;;;;;8.40;95156.00;;;;5107984;27;20475;-63
2024/02/12 01:03:15;;;;;;;340.77;86.90;;;;;8.50;95155.00;;;;5104144;27;20926;-65
2024/02/12 01:06:06;;;;;;;335.57;83.73;;;;;8.30;95158.00;;;;5109598;27;20432;-65
2024/02/12 01:08:57;;;;;;;349.13;91.63;;;;;7.80;95152.00;;;;5106114;27;20206;-65
2024/02/12 01:11:46;;;;;;;335.83;84.23;;;;;7.60;95156.00;;;;5106573;28;20421;-63
2024/02/12 01:14:36;;;;;;;346.47;90.50;;;;;7.70;95165.00;;;;5109087;27;20451;-63
2024/02/12 01:17:27;;;;;;;333.83;86.03;;;;;7.90;95158.00;;;;5107818;27;20533;-62
2024/02/12 01:20:16;;;;;;;336.33;84.37;;;;;8.00;95164.00;;;;5105258;27;20468;-63
2024/02/12 01:23:07;;;;;;;334.23;83.40;;;;;7.90;95159.00;;;;5109182;27;20995;-62
2024/02/12 01:25:57;;;;;;;339.93;82.63;;;;;8.00;95165.00;;;;5104018;27;20967;-63
2024/02/12 01:28:46;;;;;;;340.33;85.37;;;;;8.10;95161.00;;;;5107541;27;20416;-63
2024/02/12 01:31:36;;;;;;;341.53;88.60;;;;;8.00;95162.00;;;;5109145;27;20428;-62
2024/02/12 01:34:27;;;;;;;334.33;82.40;;;;;7.90;95165.00;;;;5107250;28;20459;-63
2024/02/12 01:37:16;;;;;;;337.67;84.00;;;;;8.00;95172.00;;;;5105697;28;20427;-63
2024/02/12 01:40:08;;;;;;;335.33;82.53;;;;;7.90;95173.00;;;;5107945;27;20445;-63
2024/02/12 01:42:58;;;;;;;333.60;82.57;;;;;7.70;95172.00;;;;5103235;28;20428;-61
2024/02/12 01:45:47;;;;;;;333.13;81.03;;;;;7.70;95175.00;;;;5108400;27;20443;-63
2024/02/12 01:48:37;;;;;;;344.83;89.63;;;;;7.70;95171.00;;;;5109716;27;20417;-62
2024/02/12 01:51:27;;;;;;;332.87;82.80;;;;;7.20;95170.00;;;;5107772;27;20814;-62
2024/02/12 01:54:17;;;;;;;332.43;82.33;;;;;6.80;95159.00;;;;5106685;28;21017;-62
2024/02/12 01:57:09;;;;;;;336.13;80.57;;;;;7.40;95169.00;;;;5107264;28;20428;-63
2024/02/12 02:00:00;;;;;;;336.60;82.50;;;;;7.60;95178.00;;;;5103502;27;20460;-62
2024/02/12 02:02:49;;;;;;;334.83;83.00;;;;;7.20;95175.00;;;;5109162;27;20436;-63
2024/02/12 02:05:38;;;;;;;338.63;82.97;;;;;6.80;95169.00;;;;5107724;28;20464;-63
2024/02/12 02:08:36;;;;;;;335.03;82.70;;;;;6.80;95178.00;;;;5107233;28;20509;-63
2024/02/12 02:11:26;;;;;;;333.03;81.03;;;;;6.90;95168.00;;;;5103248;28;20413;-65
2024/02/12 02:14:17;;;;;;;332.87;80.77;;;;;6.60;95176.00;;;;5108311;28;20441;-65
2024/02/12 02:17:07;;;;;;;332.03;79.30;;;;;6.40;95175.00;;;;5104531;27;20811;-64
2024/02/12 02:19:58;;;;;;;266.00;83.93;;;;;6.90;95178.00;;;;5105834;27;20460;-65
2024/02/12 02:22:49;;;;;;;274.63;88.43;;;;;7.00;95184.00;;;;5109592;27;20423;-65
2024/02/12 02:25:40;;;;;;;273.43;88.37;;;;;6.70;95186.00;;;;5105823;28;20215;-65
2024/02/12 02:28:29;;;;;;;269.63;82.93;;;;;6.50;95174.00;;;;5107313;27;20428;-65
2024/02/12 02:31:19;;;;;;;324.20;79.93;;;;;6.10;95183.00;;;;5110235;27;20209;-64
2024/02/12 02:34:08;;;;;;;330.53;79.77;;;;;6.10;95187.00;;;;5106235;27;20452;-65
2024/02/12 02:36:57;;;;;;;333.07;80.97;;;;;6.50;95196.00;;;;5105222;28;20420;-65
2024/02/12 02:39:46;;;;;;;328.27;78.03;;;;;6.80;95195.00;;;;5106701;27;20452;-65
2024/02/12 02:42:38;;;;;;;339.73;85.03;;;;;6.90;95202.00;;;;5103501;28;20424;-65
2024/02/12 02:45:27;;;;;;;333.13;80.63;;;;;7.00;95202.00;;;;5107328;27;20489;-65
2024/02/12 02:48:16;;;;;;;338.87;84.73;;;;;7.20;95194.00;;;;5108711;27;20797;-65
2024/02/12 02:51:05;;;;;;;333.30;80.30;;;;;7.20;95198.00;;;;5103014;27;20538;-65
2024/02/12 02:53:55;;;;;;;327.47;75.87;;;;;7.00;95204.00;;;;5104927;28;20425;-65
2024/02/12 02:56:44;;;;;;;333.87;82.23;;;;;7.00;95201.00;;;;5107417;28;20428;-65
2024/02/12 02:59:35;;;;;;;339.53;83.57;;;;;6.60;95192.00;;;;5104023;27;20428;-65
2024/02/12 03:02:24;;;;;;;332.60;80.03;;;;;6.60;95190.00;;;;5106561;28;20421;-65
2024/02/12 03:05:14;;;;;;;328.33;77.63;;;;;6.60;95191.00;;;;5106775;28;21101;-67
2024/02/12 03:08:06;;;;;;;331.33;80.10;;;;;6.50;95189.00;;;;5103144;27;20429;-66
2024/02/12 03:10:55;;;;;;;329.17;77.33;;;;;6.60;95191.00;;;;5103321;28;20496;-66
2024/02/12 03:13:45;;;;;;;331.30;80.00;;;;;7.00;95209.00;;;;5109326;27;21821;-66
2024/02/12 03:16:36;;;;;;;332.33;80.43;;;;;6.90;95193.00;;;;5108083;27;20806;-66
2024/02/12 03:19:25;;;;;;;332.97;81.20;;;;;6.50;95185.00;;;;5105792;27;20416;-67
2024/02/12 03:22:16;;;;;;;332.20;81.57;;;;;6.20;95201.00;;;;5106651;28;20428;-66
2024/02/12 03:25:06;;;;;;;328.23;77.97;;;;;6.40;95222.00;;;;5102442;28;20444;-67
2024/02/12 03:27:55;;;;;;;331.03;80.17;;;;;6.30;95215.00;;;;5105743;27;20416;-67
2024/02/12 03:30:44;;;;;;;336.13;83.83;;;;;6.10;95212.00;;;;5108331;27;20428;-67
2024/02/12 03:33:34;;;;;;;344.50;91.47;;;;;5.90;95213.00;;;;5106175;27;20432;-66
2024/02/12 03:36:23;;;;;;;325.10;77.60;;;;;5.80;95213.00;;;;5107265;28;20534;-67
2024/02/12 03:39:13;;;;;;;327.77;76.97;;;;;6.00;95216.00;;;;5101438;28;20429;-67
2024/02/12 03:42:02;;;;;;;324.40;77.60;;;;;6.40;95226.00;;;;5104634;28;20456;-65
2024/02/12 03:44:52;;;;;;;327.73;77.90;;;;;6.20;95230.00;;;;5105909;28;20441;-65
2024/02/12 03:47:41;;;;;;;334.23;81.93;;;;;6.10;95226.00;;;;5106898;28;20425;-67
2024/02/12 03:59:53;;;;;;;328.47;77.43;;;;;6.40;95246.00;;;;5103997;28;20443;-67
2024/02/12 04:02:43;;;;;;;335.40;81.13;;;;;6.10;95243.00;;;;5107020;28;20991;-66
2024/02/12 04:05:33;;;;;;;333.63;81.37;;;;;6.10;95242.00;;;;5107247;28;20649;-66
2024/02/12 04:08:22;;;;;;;332.60;81.37;;;;;6.20;95246.00;;;;5104923;28;20511;-67
2024/02/12 04:11:12;;;;;;;324.97;77.87;;;;;6.30;95248.00;;;;5104649;28;20420;-66
2024/02/12 04:14:01;;;;;;;322.83;74.87;;;;;5.90;95244.00;;;;5105136;28;20444;-66
2024/02/12 04:16:51;;;;;;;326.50;78.27;;;;;6.00;95253.00;;;;5107764;28;20805;-66
2024/02/12 04:19:40;;;;;;;329.77;77.77;;;;;6.10;95266.00;;;;5102596;28;20973;-66
2024/02/12 04:22:33;;;;;;;330.83;80.27;;;;;5.80;95269.00;;;;5106142;28;20425;-67
2024/02/12 04:25:23;;;;;;;326.10;77.13;;;;;5.70;95262.00;;;;5098022;28;20440;-66
2024/02/12 04:28:13;;;;;;;335.77;83.03;;;;;5.40;95264.00;;;;5102928;28;20447;-67
2024/02/12 04:31:02;;;;;;;324.17;75.80;;;;;5.70;95275.00;;;;5104703;28;20412;-67
2024/02/12 04:33:51;;;;;;;319.97;73.23;;;;;5.60;95277.00;;;;5104294;28;20425;-67
2024/02/12 04:36:41;;;;;;;327.70;77.37;;;;;5.50;95270.00;;;;5106152;28;20417;-67
2024/02/12 04:39:32;;;;;;;330.27;78.90;;;;;4.90;95282.00;;;;5105270;28;20428;-67
2024/02/12 04:42:21;;;;;;;323.20;74.97;;;;;5.00;95281.00;;;;5105484;28;20452;-67
2024/02/12 04:45:11;;;;;;;324.03;75.83;;;;;5.30;95277.00;;;;5104744;28;20977;-66
2024/02/12 04:48:00;;;;;;;306.17;76.10;;;;;5.30;95296.00;;;;5106411;28;20425;-67
2024/02/12 04:50:49;;;;;;;322.43;73.90;;;;;5.60;95286.00;;;;5105560;28;20425;-67
2024/02/12 04:53:39;;;;;;;337.10;83.97;;;;;5.70;95285.00;;;;5104301;28;20449;-66
2024/02/12 04:56:30;;;;;;;324.03;75.27;;;;;5.40;95285.00;;;;5107848;27;20469;-67
2024/02/12 04:59:19;;;;;;;319.57;73.63;;;;;5.10;95286.00;;;;5101104;27;20454;-67
2024/02/12 05:02:08;;;;;;;327.70;76.73;;;;;5.50;95283.00;;;;5104863;27;20460;-66
2024/02/12 05:04:57;;;;;;;329.07;79.50;;;;;5.30;95294.00;;;;5106227;27;20463;-66
2024/02/12 05:07:47;;;;;;;324.27;75.50;;;;;5.40;95295.00;;;;5107044;27;20435;-66
2024/02/12 05:10:36;;;;;;;331.53;80.07;;;;;5.40;95293.00;;;;5109067;27;20416;-66
2024/02/12 05:13:27;;;;;;;326.07;77.00;;;;;5.20;95289.00;;;;5110771;27;20424;-66
2024/02/12 05:16:16;;;;;;;323.57;75.63;;;;;5.10;95288.00;;;;5099938;27;20451;-66
2024/02/12 05:25:19;;;;;;;327.17;78.40;;;;;4.50;95298.00;;;;5107076;27;20475;-66
2024/02/12 05:28:08;;;;;;;330.13;78.67;;;;;5.20;95309.00;;;;5098794;27;20444;-66
2024/02/12 05:30:59;;;;;;;221.90;75.93;;;;;5.10;95312.00;;;;5107638;28;20948;-67
2024/02/12 05:33:50;;;;;;;221.27;77.83;;;;;4.50;95313.00;;;;5106970;27;20432;-67
2024/02/12 05:36:39;;;;;;;239.73;83.00;;;;;5.20;95316.00;;;;5105299;28;20459;-66
2024/02/12 05:39:31;;;;;;;235.83;79.33;;;;;5.60;95325.00;;;;5107170;27;20420;-66
2024/02/12 05:42:20;;;;;;;185.90;70.77;;;;;5.30;95320.00;;;;5101747;27;20472;-66
2024/02/12 05:45:10;;;;;;;176.27;72.73;;;;;5.20;95320.00;;;;5102092;27;20455;-66
2024/02/12 05:48:01;;;;;;;120.27;61.33;;;;;5.00;95322.00;;;;5105559;28;20443;-66
2024/02/12 05:50:52;;;;;;;108.27;60.43;;;;;5.10;95325.00;;;;5108393;27;20436;-66
2024/02/12 05:53:41;;;;;;;126.60;69.73;;;;;5.20;95329.00;;;;5105910;27;20433;-66
2024/02/12 05:56:33;;;;;;;121.80;64.83;;;;;5.60;95338.00;;;;5104422;27;20425;-67
2024/02/12 05:59:22;;;;;;;129.67;65.67;;;;;5.80;95341.00;;;;5116001;27;20780;-66
2024/02/12 06:02:11;;;;;;;138.00;67.00;;;;;5.50;95336.00;;;;5102903;27;20811;-66
2024/02/12 06:05:02;;;;;;;135.97;64.70;;;;;5.80;95346.00;;;;5104393;27;20739;-67
2024/02/12 06:07:52;;;;;;;134.20;65.47;;;;;5.40;95349.00;;;;5097184;28;20435;-66
2024/02/12 06:10:41;;;;;;;136.83;68.03;;;;;5.40;95347.00;;;;5105923;28;20425;-66
2024/02/12 06:13:30;;;;;;;137.20;68.27;;;;;5.50;95349.00;;;;5107345;28;20794;-66
2024/02/12 06:16:19;;;;;;;136.20;64.23;;;;;5.90;95352.00;;;;5107466;28;20437;-67
2024/02/12 06:19:08;;;;;;;149.60;69.87;;;;;5.70;95360.00;;;;5107121;27;20830;-67
2024/02/12 06:21:59;;;;;;;162.73;71.67;;;;;5.70;95364.00;;;;5115259;27;20464;-66
2024/02/12 06:24:48;;;;;;;171.17;72.10;;;;;5.50;95364.00;;;;5095690;27;20452;-67
2024/02/12 06:27:37;;;;;;;202.83;85.33;;;;;5.40;95375.00;;;;5103763;28;20439;-66
2024/02/12 06:30:26;;;;;;;182.60;69.83;;;;;5.40;95374.00;;;;5104391;28;20499;-67
2024/02/12 06:33:15;;;;;;;209.67;79.43;;;;;5.10;95384.00;;;;5107183;27;20424;-66
2024/02/12 06:36:05;;;;;;;212.10;76.17;;;;;5.40;95376.00;;;;5108265;28;20425;-66
2024/02/12 06:38:56;;;;;;;215.50;81.33;;;;;5.90;95398.00;;;;5104363;27;20428;-67
2024/02/12 06:41:45;;;;;;;238.37;83.00;;;;;5.70;95393.00;;;;5108325;27;20984;-66
2024/02/12 06:44:34;;;;;;;242.57;83.77;;;;;5.30;95396.00;;;;5101493;27;20466;-67
2024/02/12 06:47:23;;;;;;;237.73;79.93;;;;;5.30;95409.00;;;;5104970;27;20417;-67
2024/02/12 06:50:13;;;;;;;236.90;80.83;;;;;5.70;95404.00;;;;5113124;27;20431;-67
2024/02/12 06:53:03;;;;;;;353.70;172.20;;;;;5.20;95403.00;;;;5044458;27;20443;-66
2024/02/12 06:55:54;;;;;;;376.57;186.00;;;;;5.20;95402.00;;;;5047776;27;20445;-66
2024/02/12 06:58:44;;;;;;;335.43;156.23;;;;;4.90;95405.00;;;;5068336;27;20441;-67
2024/02/12 07:01:33;;;;;;;367.67;184.77;;;;;5.40;95402.00;;;;5056623;27;20428;-67
2024/02/12 07:04:22;;;;;;;266.63;97.80;;;;;5.50;95411.00;;;;5056492;27;20455;-66
2024/02/12 07:07:11;;;;;;;373.80;167.97;;;;;5.40;95414.00;;;;5082268;27;20847;-68
2024/02/12 07:10:00;;;;;;;407.20;187.60;;;;;5.10;95414.00;;;;5043687;27;20563;-66
2024/02/12 07:12:51;;;;;;;413.27;172.13;;;;;5.60;95421.00;;;;5038506;27;22486;-66
2024/02/12 07:15:41;;;;;;;462.17;198.57;;;;;5.60;95428.00;;;;5040592;27;20471;-66
2024/02/12 07:18:30;;;;;;;323.10;75.43;;;;;5.50;95416.00;;;;5095214;27;20444;-66
2024/02/12 07:21:19;;;;;;;321.13;75.23;;;;;5.70;95434.00;;;;5090430;27;20450;-66
2024/02/12 07:24:09;;;;;;;327.17;77.07;;;;;5.70;95433.00;;;;5089932;27;20464;-67
2024/02/12 07:26:58;;;;;;;321.77;75.07;;;;;5.70;95429.00;;;;5101178;27;20852;-66
2024/02/12 07:29:49;;;;;;;339.40;87.37;;;;;5.80;95434.00;;;;5087433;27;20452;-66
2024/02/12 07:32:38;;;;;;;334.57;82.53;;;;;5.40;95426.00;;;;5095003;27;20485;-66
2024/02/12 07:35:29;;;;;;;319.43;73.80;;;;;5.70;95434.00;;;;5096005;28;20470;-66
2024/02/12 07:38:18;;;;;;;338.60;83.70;;;;;5.70;95432.00;;;;5101168;28;20423;-67
2024/02/12 07:41:08;;;;;;;327.13;77.73;;;;;5.80;95432.00;;;;5100784;28;20432;-66
2024/02/12 07:43:57;;;;;;;323.23;75.43;;;;;5.90;95430.00;;;;5095051;27;20464;-66
2024/02/12 07:46:48;;;;;;;334.27;84.57;;;;;5.80;95440.00;;;;5094723;28;20447;-66
2024/02/12 07:49:37;;;;;;;334.40;84.13;;;;;6.00;95443.00;;;;5105626;27;20419;-66
2024/02/12 07:52:27;;;;;;;323.63;76.23;;;;;5.90;95443.00;;;;5111931;27;20830;-66
2024/02/12 07:55:16;;;;;;;328.10;78.63;;;;;5.90;95447.00;;;;5095089;28;20461;-66
2024/02/12 07:58:05;;;;;;;322.17;75.17;;;;;6.20;95443.00;;;;5089915;28;20437;-66
2024/02/12 08:00:57;;;;;;;328.60;78.63;;;;;6.20;95439.00;;;;5091274;28;20432;-67
2024/02/12 08:03:48;;;;;;;336.17;84.80;;;;;6.10;95446.00;;;;5100015;27;20582;-66
2024/02/12 08:06:38;;;;;;;336.13;84.73;;;;;6.20;95439.00;;;;5107128;27;20977;-66
2024/02/12 08:09:28;;;;;;;325.00;78.23;;;;;6.30;95452.00;;;;5096056;28;21033;-66
2024/02/12 08:12:19;;;;;;;328.60;78.83;;;;;6.20;95444.00;;;;5095853;28;20441;-66
2024/02/12 08:15:09;;;;;;;328.00;79.50;;;;;6.40;95452.00;;;;5098264;28;20851;-66
2024/02/12 08:17:59;;;;;;;326.33;78.63;;;;;6.50;95447.00;;;;5098732;28;20459;-66
2024/02/12 08:20:49;;;;;;;333.30;81.73;;;;;6.70;95448.00;;;;5102489;28;20489;-66
2024/02/12 08:23:38;;;;;;;341.70;87.83;;;;;7.10;95451.00;;;;5104168;28;20467;-66
2024/02/12 08:26:28;;;;;;;337.27;83.47;;;;;7.20;95454.00;;;;5098402;28;21013;-66
2024/02/12 08:29:17;;;;;;;338.77;84.30;;;;;7.00;95460.00;;;;5104147;28;20435;-66
2024/02/12 08:32:06;;;;;;;330.27;80.27;;;;;6.80;95463.00;;;;5102114;27;20440;-66
2024/02/12 08:34:56;;;;;;;332.40;81.70;;;;;6.90;95452.00;;;;5104969;28;20459;-66
2024/02/12 08:37:47;;;;;;;350.20;90.33;;;;;7.40;95459.00;;;;5101763;28;20909;-66
2024/02/12 08:40:36;;;;;;;337.07;84.43;;;;;7.60;95463.00;;;;5099383;28;20433;-66
2024/02/12 08:43:25;;;;;;;338.53;83.20;;;;;7.40;95458.00;;;;5106888;28;21011;-67
2024/02/12 08:46:14;;;;;;;335.27;83.47;;;;;7.50;95473.00;;;;5106432;28;20425;-66
2024/02/12 08:49:04;;;;;;;332.40;83.27;;;;;7.40;95467.00;;;;5108526;27;20432;-67
2024/02/12 08:51:54;;;;;;;329.67;79.07;;;;;7.40;95459.00;;;;5107937;27;20425;-67
2024/02/12 08:54:44;;;;;;;336.33;82.77;;;;;7.20;95470.00;;;;5105093;27;20453;-67
2024/02/12 08:57:34;;;;;;;337.63;84.13;;;;;7.70;95475.00;;;;5112419;27;20802;-66
2024/02/12 09:00:23;;;;;;;330.07;80.70;;;;;7.90;95471.00;;;;5106099;27;20428;-66
2024/02/12 09:03:13;;;;;;;335.93;86.37;;;;;8.00;95470.00;;;;5103532;28;20459;-66
2024/02/12 09:06:04;;;;;;;337.83;82.00;;;;;8.40;95473.00;;;;5141774;22;20582;-71
2024/02/12 09:08:53;;;;;;;339.60;84.73;;;;;8.50;95476.00;;;;5115177;27;20427;-71
2024/02/12 09:11:44;;;;;;;340.73;85.07;;;;;8.60;95488.00;;;;5121636;27;20428;-70
2024/02/12 09:14:35;;;;;;;341.30;85.90;;;;;8.70;95486.00;;;;5116339;27;20459;-71
2024/02/12 09:17:25;;;;;;;334.57;83.10;;;;;8.80;95497.00;;;;5107173;27;20488;-71
2024/02/12 09:20:15;;;;;;;330.57;80.03;;;;;9.00;95487.00;;;;5109083;27;20438;-70
2024/02/12 09:23:06;;;;;;;336.70;83.80;;;;;9.10;95500.00;;;;5116002;27;20464;-71
2024/02/12 09:25:55;;;;;;;337.70;85.93;;;;;9.10;95492.00;;;;5106429;27;20452;-70
2024/02/12 09:28:46;;;;;;;355.03;95.43;;;;;9.30;95499.00;;;;5101861;27;20440;-71
2024/02/12 09:31:35;;;;;;;345.27;91.57;;;;;9.20;95495.00;;;;5101302;27;20779;-71
2024/02/12 09:34:24;;;;;;;341.90;91.10;;;;;9.30;95490.00;;;;5114485;27;20241;-71
2024/02/12 09:37:13;;;;;;;342.37;89.63;;;;;9.40;95498.00;;;;5107527;27;20803;-71
2024/02/12 09:40:07;;;;;;;341.07;89.33;;;;;8.90;95490.00;;;;5105533;27;20214;-71
2024/02/12 09:42:56;;;;;;;339.93;88.87;;;;;9.10;95494.00;;;;5099740;28;20460;-71
2024/02/12 09:45:47;;;;;;;354.90;99.90;;;;;9.10;95488.00;;;;5108637;27;20236;-71
2024/02/12 09:48:36;;;;;;;349.87;94.33;;;;;9.40;95496.00;;;;5108232;27;20197;-70
2024/02/12 09:51:27;;;;;;;342.50;89.33;;;;;9.40;95491.00;;;;5108780;28;20202;-71
2024/02/12 09:54:16;;;;;;;345.93;92.53;;;;;9.30;95498.00;;;;5102303;28;20233;-70
2024/02/12 09:57:05;;;;;;;340.87;87.60;;;;;9.40;95503.00;;;;5102220;28;20207;-71
2024/02/12 09:59:56;;;;;;;340.30;88.10;;;;;9.50;95496.00;;;;5106305;27;20196;-71
2024/02/12 10:02:46;;;;;;;353.17;96.37;;;;;9.80;95496.00;;;;5112616;27;20198;-71
2024/02/12 10:05:36;;;;;;;355.73;100.17;;;;;10.10;95501.00;;;;5099288;27;20238;-70
2024/02/12 10:08:25;;;;;;;350.63;96.50;;;;;10.10;95498.00;;;;5105980;28;20213;-71
2024/02/12 10:11:24;;;;;;;341.50;91.30;;;;;10.10;95502.00;;;;5104847;28;20212;-71
2024/02/12 10:14:13;;;;;;;341.57;90.07;;;;;10.20;95502.00;;;;5110483;27;21611;-71
2024/02/12 10:17:03;;;;;;;341.10;90.07;;;;;10.00;95491.00;;;;5103751;27;20584;-71
2024/02/12 10:19:53;;;;;;;341.37;89.70;;;;;10.00;95493.00;;;;5107202;27;20220;-71
2024/02/12 10:22:44;;;;;;;343.07;90.00;;;;;9.90;95499.00;;;;5108955;27;20203;-71
2024/02/12 10:25:33;;;;;;;340.10;91.07;;;;;10.30;95487.00;;;;5104121;27;20226;-70
2024/02/12 10:28:23;;;;;;;243.47;106.50;;;;;9.90;95491.00;;;;5109876;27;20675;-71
2024/02/12 10:31:14;;;;;;;135.63;84.73;;;;;9.90;95492.00;;;;5106632;27;20198;-71
2024/02/12 10:34:04;;;;;;;101.67;74.30;;;;;10.20;95492.00;;;;5103883;28;20186;-71
2024/02/12 10:36:57;;;;;;;110.60;78.73;;;;;10.90;95499.00;;;;5109171;27;20308;-71
2024/02/12 10:39:46;;;;;;;101.53;76.23;;;;;11.00;95497.00;;;;5110984;27;20198;-71
2024/02/12 10:42:38;;;;;;;104.00;78.53;;;;;11.40;95484.00;;;;5104286;27;20907;-71
2024/02/12 10:45:28;;;;;;;108.87;80.30;;;;;11.50;95485.00;;;;5108386;27;20595;-71
2024/02/12 10:48:17;;;;;;;115.47;87.53;;;;;11.40;95485.00;;;;5109771;27;20580;-71
2024/02/12 10:51:08;;;;;;;93.80;79.30;;;;;11.50;95491.00;;;;5100645;27;20203;-71
2024/02/12 10:53:59;;;;;;;97.30;85.00;;;;;11.70;95476.00;;;;5108505;27;20194;-71
2024/02/12 10:56:48;;;;;;;98.93;82.70;;;;;11.90;95479.00;;;;5104558;28;20214;-71
2024/02/12 10:59:37;;;;;;;97.37;83.77;;;;;12.10;95483.00;;;;5100809;27;20194;-71
2024/02/12 11:02:26;;;;;;;89.27;79.60;;;;;12.30;95484.00;;;;5114321;27;20585;-71
2024/02/12 11:05:19;;;;;;;93.27;83.17;;;;;12.30;95479.00;;;;5106796;28;20226;-71
2024/02/12 11:08:09;;;;;;;101.70;86.90;;;;;12.40;95491.00;;;;5106105;28;20199;-71
2024/02/12 11:11:00;;;;;;;105.57;90.13;;;;;12.50;95483.00;;;;5100163;28;20195;-71
2024/02/12 11:13:52;;;;;;;103.83;91.53;;;;;12.50;95481.00;;;;5104298;28;20190;-71
2024/02/12 11:16:42;;;;;;;102.67;91.07;;;;;12.20;95489.00;;;;5104105;28;20206;-70
2024/02/12 11:19:33;;;;;;;112.70;93.07;;;;;12.60;95484.00;;;;5099867;28;20605;-70
2024/02/12 11:22:27;;;;;;;114.50;94.80;;;;;12.90;95471.00;;;;5102678;28;20579;-71
2024/02/12 11:25:17;;;;;;;122.20;100.20;;;;;13.10;95477.00;;;;5100154;28;20226;-70
2024/02/12 11:28:15;;;;;;;117.03;97.70;;;;;13.10;95481.00;;;;5104166;28;20234;-70
2024/02/12 11:31:10;;;;;;;123.67;99.27;;;;;13.60;95483.00;;;;5102180;28;20201;-70
2024/02/12 11:34:00;;;;;;;130.40;105.13;;;;;13.60;95469.00;;;;5100473;28;20206;-71
2024/02/12 11:36:58;;;;;;;144.63;115.27;;;;;14.00;95486.00;;;;5102949;28;20194;-71
2024/02/12 11:39:58;;;;;;;128.73;114.37;;;;;13.80;95484.00;;;;5096650;28;20848;-71
2024/02/12 11:42:49;;;;;;;131.03;115.77;;;;;14.50;95486.00;;;;5105294;27;20274;-71
2024/02/12 11:45:41;;;;;;;140.87;118.70;;;;;14.70;95479.00;;;;5099219;28;20233;-71
2024/02/12 11:48:31;;;;;;;153.10;124.30;;;;;15.00;95482.00;;;;5104101;27;20197;-71
2024/02/12 11:51:20;;;;;;;150.60;130.10;;;;;14.80;95497.00;;;;5101271;27;20278;-71
2024/02/12 11:54:13;;;;;;;144.90;126.83;;;;;14.40;95483.00;;;;5106185;27;20194;-71
2024/02/12 11:57:04;;;;;;;143.70;129.00;;;;;14.40;95483.00;;;;5109915;28;20202;-71
2024/02/12 11:59:58;;;;;;;137.97;124.30;;;;;14.20;95488.00;;;;5095900;28;20591;-71
2024/02/12 12:02:51;;;;;;;142.03;127.10;;;;;14.10;95485.00;;;;5108431;28;20197;-71
2024/02/12 12:05:43;;;;;;;138.20;123.93;;;;;14.00;95491.00;;;;5101727;28;20700;-70
2024/02/12 12:08:33;;;;;;;135.17;121.90;;;;;14.00;95484.00;;;;5105437;28;20263;-71
2024/02/12 12:11:22;;;;;;;110.43;100.80;;;;;13.90;95480.00;;;;5106357;28;20214;-70
2024/02/12 12:14:12;;;;;;;109.20;99.73;;;;;13.80;95491.00;;;;5100599;28;20220;-71
2024/02/12 12:17:02;;;;;;;106.63;97.73;;;;;13.70;95488.00;;;;5100974;28;20202;-71
2024/02/12 12:19:53;;;;;;;111.97;101.73;;;;;13.60;95487.00;;;;5103692;28;20224;-71
2024/02/12 12:22:42;;;;;;;110.87;100.47;;;;;13.60;95481.00;;;;5103327;28;20202;-71
2024/02/12 12:25:31;;;;;;;99.80;91.20;;;;;13.50;95476.00;;;;5101253;28;20683;-71
2024/02/12 12:28:20;;;;;;;111.17;100.47;;;;;13.40;95469.00;;;;5105007;28;20230;-71
2024/02/12 12:31:11;;;;;;;104.63;94.70;;;;;14.30;95467.00;;;;5104205;28;20239;-71
2024/02/12 12:34:00;;;;;;;106.83;97.00;;;;;14.50;95472.00;;;;5100268;28;20199;-71
2024/02/12 12:36:50;;;;;;;116.87;105.53;;;;;14.20;95475.00;;;;5096324;28;20223;-71
2024/02/12 12:39:40;;;;;;;123.73;111.60;;;;;14.80;95484.00;;;;5098712;28;20704;-71
2024/02/12 12:42:30;;;;;;;117.97;107.10;;;;;15.30;95485.00;;;;5101223;28;20213;-71
2024/02/12 12:45:21;;;;;;;120.77;109.80;;;;;15.60;95487.00;;;;5102815;27;20223;-71
2024/02/12 12:48:11;;;;;;;132.90;120.33;;;;;15.70;95494.00;;;;5099768;28;20207;-71
2024/02/12 12:51:02;;;;;;;144.83;130.47;;;;;16.20;95472.00;;;;5104541;28;20207;-71
2024/02/12 12:53:53;;;;;;;163.90;146.53;;;;;16.60;95477.00;;;;5104283;28;20711;-71
2024/02/12 12:56:42;;;;;;;176.23;157.97;;;;;16.60;95490.00;;;;5101161;28;20584;-72
2024/02/12 12:59:31;;;;;;;177.30;158.77;;;;;17.30;95454.00;;;;5096269;28;20761;-72
2024/02/12 13:02:21;;;;;;;186.47;167.27;;;;;17.10;95484.00;;;;5102796;28;20698;-72
2024/02/12 13:05:10;;;;;;;189.37;171.23;;;;;16.90;95483.00;;;;5103775;28;20235;-72
2024/02/12 13:07:59;;;;;;;207.13;188.47;;;;;17.20;95467.00;;;;5104312;28;20213;-72
2024/02/12 13:10:50;;;;;;;208.50;189.60;;;;;17.40;95487.00;;;;5105991;28;20205;-72
2024/02/12 13:13:40;;;;;;;213.43;194.77;;;;;17.40;95483.00;;;;5104080;28;20214;-72
2024/02/12 13:16:30;;;;;;;216.67;198.53;;;;;18.40;95447.00;;;;5100200;28;20203;-72
2024/02/12 13:19:20;;;;;;;229.37;209.03;;;;;19.80;95441.00;;;;5109709;27;20703;-72
2024/02/12 13:22:09;;;;;;;265.87;237.93;;;;;20.60;95467.00;;;;5100584;28;20210;-72
2024/02/12 13:25:00;;;;;;;320.00;273.40;;;;;20.10;95501.00;;;;5101314;28;20600;-72
2024/02/12 13:27:52;;;;;;;333.93;296.97;;;;;19.40;95474.00;;;;5100778;27;20202;-72
2024/02/12 13:30:43;;;;;;;351.77;308.07;;;;;20.40;95449.00;;;;5102195;27;20198;-72
2024/02/12 13:33:33;;;;;;;366.13;321.73;;;;;21.40;95453.00;;;;5096772;28;20228;-72
2024/02/12 13:36:27;;;;;;;406.00;336.67;;;;;21.60;95482.00;;;;5107332;28;20202;-72
2024/02/12 13:39:19;;;;;;;426.17;363.20;;;;;22.60;95454.00;;;;5108325;28;20225;-73
2024/02/12 13:42:12;;;;;;;426.30;378.47;;;;;22.60;95464.00;;;;5104033;28;20192;-72
2024/02/12 13:45:03;;;;;;;454.17;405.67;;;;;22.60;95459.00;;;;5104117;27;20221;-72
2024/02/12 13:47:53;;;;;;;478.43;428.90;;;;;22.50;95521.00;;;;5107330;27;20208;-73
2024/02/12 13:50:43;;;;;;;495.73;445.47;;;;;22.40;95487.00;;;;5116568;27;20206;-72
2024/02/12 13:53:35;;;;;;;496.87;446.83;;;;;23.60;95467.00;;;;5100104;27;20197;-72
2024/02/12 13:56:24;;;;;;;513.27;463.30;;;;;23.50;95532.00;;;;5105504;27;20229;-72
2024/02/12 13:59:16;;;;;;;523.77;473.67;;;;;21.90;95530.00;;;;5112588;27;20291;-72
2024/02/12 14:02:09;;;;;;;518.67;468.30;;;;;21.10;95530.00;;;;5105823;28;20206;-71